Time;durP1;ratioP1;P1;durP2;ratioP2;P2;SDS_P1;SDS_P2;PMS_P1;PMS_P2;Temp;Humidity;BMP_temperature;BMP_pressure;BME280_temperature;BME280_humidity;BME280_pressure;Samples;Min_cycle;Max_cycle;Signal;HPM_P1;HPM_P2
2023/09/29 00:00:35;;;;;;;;;12.25;11.00;;;;;-143.00;100.00;60422.56;5095083;27;45394;-67
2023/09/29 00:03:01;;;;;;;;;13.50;13.50;;;;;-143.00;100.00;60422.56;5075670;27;45489;-67
2023/09/29 00:05:27;;;;;;;;;16.50;14.25;;;;;-143.00;100.00;60422.56;5095730;27;45389;-67
2023/09/29 00:07:55;;;;;;;;;14.60;13.80;;;;;-143.00;100.00;60422.56;5092951;27;45459;-67
2023/09/29 00:10:21;;;;;;;;;13.25;12.50;;;;;-143.00;100.00;60422.56;5094744;27;45396;-67
2023/09/29 00:12:51;;;;;;;;;12.00;11.50;;;;;-143.00;100.00;60422.56;5092879;27;45529;-67
2023/09/29 00:15:18;;;;;;;;;14.75;13.25;;;;;-143.00;100.00;60422.56;5071884;27;48097;-67
2023/09/29 00:17:44;;;;;;;;;13.00;10.80;;;;;-143.00;100.00;60422.56;5094552;27;45427;-67
2023/09/29 00:22:39;;;;;;;;;13.50;12.50;;;;;-143.00;100.00;60422.56;5093925;27;45491;-67
2023/09/29 00:25:06;;;;;;;;;14.50;13.75;;;;;-143.00;100.00;60422.56;5090872;27;45664;-66
2023/09/29 00:27:31;;;;;;;;;17.00;15.00;;;;;-143.00;100.00;60422.56;5095025;27;45412;-67
2023/09/29 00:29:57;;;;;;;;;13.75;12.50;;;;;-143.00;100.00;60422.56;5081415;27;45428;-67
2023/09/29 00:32:22;;;;;;;;;14.25;12.50;;;;;-143.00;100.00;60422.56;5076905;27;45532;-67
2023/09/29 00:34:48;;;;;;;;;17.75;15.25;;;;;-143.00;100.00;60422.56;5090763;27;45429;-67
2023/09/29 00:37:14;;;;;;;;;16.00;15.50;;;;;-143.00;100.00;60422.56;5094978;27;45388;-67
2023/09/29 00:39:40;;;;;;;;;15.25;13.00;;;;;-143.00;100.00;60422.56;5094913;27;45395;-67
2023/09/29 00:42:06;;;;;;;;;16.75;12.50;;;;;-143.00;100.00;60422.56;5095435;27;45430;-67
2023/09/29 00:44:33;;;;;;;;;13.25;13.00;;;;;-143.00;100.00;60422.56;5088166;27;45934;-66
2023/09/29 00:47:00;;;;;;;;;14.60;12.60;;;;;-143.00;100.00;60422.56;5095226;27;45314;-67
2023/09/29 00:49:26;;;;;;;;;11.00;11.00;;;;;-143.00;100.00;60422.56;5083827;27;45470;-67
2023/09/29 00:51:52;;;;;;;;;12.25;10.25;;;;;-143.00;100.00;60422.56;5095175;27;45625;-67
2023/09/29 00:54:18;;;;;;;;;10.75;10.75;;;;;-143.00;100.00;60422.56;5092723;27;45460;-67
2023/09/29 00:56:44;;;;;;;;;8.80;8.80;;;;;-143.00;100.00;60422.56;5076323;27;45449;-67
2023/09/29 00:59:10;;;;;;;;;11.25;10.75;;;;;-143.00;100.00;60422.56;5088573;27;45397;-67
2023/09/29 01:01:36;;;;;;;;;10.50;10.50;;;;;-143.00;100.00;60422.56;5093814;27;45538;-67
2023/09/29 01:04:02;;;;;;;;;10.25;10.25;;;;;-143.00;100.00;60422.56;5093665;27;46668;-67
2023/09/29 01:06:29;;;;;;;;;11.00;11.00;;;;;-143.00;100.00;60422.56;5094375;27;45464;-67
2023/09/29 01:08:57;;;;;;;;;11.20;10.20;;;;;-143.00;100.00;60422.56;5093406;27;45286;-66
2023/09/29 01:11:22;;;;;;;;;12.50;12.25;;;;;-143.00;100.00;60422.56;5093842;27;45476;-67
2023/09/29 01:13:48;;;;;;;;;10.00;8.25;;;;;-143.00;100.00;60422.56;5093244;27;46380;-67
2023/09/29 01:16:13;;;;;;;;;11.00;10.50;;;;;-143.00;100.00;60422.56;5093009;27;45439;-67
2023/09/29 01:18:39;;;;;;;;;11.75;11.50;;;;;-143.00;100.00;60422.56;5093571;27;45488;-67
2023/09/29 01:21:06;;;;;;;;;12.50;10.00;;;;;-143.00;100.00;60422.56;5090741;27;45454;-67
2023/09/29 01:23:33;;;;;;;;;12.50;10.75;;;;;-143.00;100.00;60422.56;5089382;27;45501;-66
2023/09/29 01:25:59;;;;;;;;;14.80;13.00;;;;;-143.00;100.00;60422.56;5076070;27;45404;-66
2023/09/29 01:28:25;;;;;;;;;15.75;14.00;;;;;-143.00;100.00;60422.56;5090841;27;45544;-66
2023/09/29 01:30:53;;;;;;;;;12.00;11.00;;;;;-143.00;100.00;60422.56;5092054;27;45510;-67
2023/09/29 01:33:22;;;;;;;;;13.25;12.75;;;;;-143.00;100.00;60422.56;5095686;27;45593;-67
2023/09/29 01:35:50;;;;;;;;;14.20;11.40;;;;;-143.00;100.00;60422.56;5094663;27;45363;-67
2023/09/29 01:38:15;;;;;;;;;12.00;12.00;;;;;-143.00;100.00;60422.56;5094280;27;45411;-67
2023/09/29 01:40:41;;;;;;;;;13.50;12.25;;;;;-143.00;100.00;60422.56;5094088;27;45528;-66
2023/09/29 01:43:06;;;;;;;;;13.50;11.25;;;;;-143.00;100.00;60422.56;5068620;27;46289;-66
2023/09/29 01:45:32;;;;;;;;;12.00;11.25;;;;;-143.00;100.00;60422.56;5086692;27;45409;-67
2023/09/29 01:48:00;;;;;;;;;10.25;10.25;;;;;-143.00;100.00;60422.56;5094601;27;45397;-67
2023/09/29 01:50:26;;;;;;;;;11.50;10.75;;;;;-143.00;100.00;60422.56;5075648;27;45539;-67
2023/09/29 01:52:52;;;;;;;;;10.50;10.50;;;;;-143.00;100.00;60422.56;5074185;27;48121;-67
2023/09/29 01:55:19;;;;;;;;;10.40;10.40;;;;;-143.00;100.00;60422.56;5075105;27;45520;-67
2023/09/29 01:57:49;;;;;;;;;13.75;12.25;;;;;-143.00;100.00;60422.56;5092719;27;45468;-67
2023/09/29 02:00:19;;;;;;;;;12.75;11.75;;;;;-143.00;100.00;60422.56;5064619;27;45723;-67
2023/09/29 02:02:46;;;;;;;;;11.75;11.75;;;;;-143.00;100.00;60422.56;5093197;27;46539;-67
2023/09/29 02:05:12;;;;;;;;;11.80;11.80;;;;;-143.00;100.00;60422.56;5091185;27;45489;-67
2023/09/29 02:07:39;;;;;;;;;13.00;11.00;;;;;-143.00;100.00;60422.56;5089425;27;45483;-67
2023/09/29 02:10:05;;;;;;;;;15.75;12.25;;;;;-143.00;100.00;60422.56;5091230;27;45433;-67
2023/09/29 02:12:31;;;;;;;;;11.25;11.25;;;;;-143.00;100.00;60422.56;5079685;27;46580;-67
2023/09/29 02:14:56;;;;;;;;;12.75;12.75;;;;;-143.00;100.00;60422.56;5090486;27;45532;-67
2023/09/29 02:17:22;;;;;;;;;13.25;13.00;;;;;-143.00;100.00;60422.56;5101177;27;45466;-67
2023/09/29 02:19:47;;;;;;;;;12.25;12.25;;;;;-143.00;100.00;60422.56;5107776;27;45407;-67
2023/09/29 02:22:16;;;;;;;;;12.75;12.75;;;;;-143.00;100.00;60422.56;5090101;27;45337;-67
2023/09/29 02:24:43;;;;;;;;;15.60;12.20;;;;;-143.00;100.00;60422.56;5087113;27;45557;-67
2023/09/29 02:27:09;;;;;;;;;13.00;11.50;;;;;-143.00;100.00;60422.56;5097742;27;45560;-66
2023/09/29 02:29:34;;;;;;;;;14.00;12.25;;;;;-143.00;100.00;60422.56;5089858;27;45608;-66
2023/09/29 02:32:00;;;;;;;;;10.50;8.50;;;;;-143.00;100.00;60422.56;5097166;27;45496;-67
2023/09/29 02:34:25;;;;;;;;;10.00;10.00;;;;;-143.00;100.00;60422.56;5102003;27;45399;-67
2023/09/29 02:36:52;;;;;;;;;11.25;11.25;;;;;-143.00;100.00;60422.56;5097503;27;45388;-67
2023/09/29 02:39:17;;;;;;;;;14.25;12.25;;;;;-143.00;100.00;60422.56;5087093;27;45472;-67
2023/09/29 02:41:44;;;;;;;;;15.00;12.50;;;;;-143.00;100.00;60422.56;5112897;27;47701;-67
2023/09/29 02:44:09;;;;;;;;;12.00;11.40;;;;;-143.00;100.00;60422.56;5087735;27;45400;-67
2023/09/29 02:46:35;;;;;;;;;13.75;13.75;;;;;-143.00;100.00;60422.56;5097799;27;45413;-67
2023/09/29 02:49:05;;;;;;;;;11.00;11.00;;;;;-143.00;100.00;60422.56;5076695;27;45551;-67
2023/09/29 02:51:30;;;;;;;;;13.25;11.50;;;;;-143.00;100.00;60422.56;5097157;27;46173;-67
2023/09/29 02:53:56;;;;;;;;;15.00;13.25;;;;;-143.00;100.00;60422.56;5097338;27;45433;-67
2023/09/29 02:56:23;;;;;;;;;12.75;12.25;;;;;-143.00;100.00;60422.56;5096988;27;45523;-67
2023/09/29 02:58:49;;;;;;;;;12.25;12.25;;;;;-143.00;100.00;60422.56;5094718;27;45474;-67
2023/09/29 03:01:18;;;;;;;;;12.75;12.75;;;;;-143.00;100.00;60422.56;5093689;27;46567;-67
2023/09/29 03:03:45;;;;;;;;;12.60;12.60;;;;;-143.00;100.00;60422.56;5092796;27;45431;-67
2023/09/29 03:06:24;;;;;;;;;15.50;14.75;;;;;-143.00;100.00;60422.56;5074977;27;45509;-67
2023/09/29 03:08:58;;;;;;;;;12.50;12.25;;;;;-143.00;100.00;60422.56;5088704;27;45312;-67
2023/09/29 03:11:24;;;;;;;;;15.25;15.25;;;;;-143.00;100.00;60422.56;5083096;27;45447;-67
2023/09/29 03:13:50;;;;;;;;;15.80;14.60;;;;;-143.00;100.00;60422.56;5096766;27;45379;-67
2023/09/29 03:16:18;;;;;;;;;14.25;13.75;;;;;-143.00;100.00;60422.56;5096986;27;45776;-67
2023/09/29 03:18:43;;;;;;;;;15.50;14.25;;;;;-143.00;100.00;60422.56;5076935;27;45530;-67
2023/09/29 03:21:09;;;;;;;;;16.25;15.75;;;;;-143.00;100.00;60422.56;5097213;27;46116;-67
2023/09/29 03:23:35;;;;;;;;;18.00;16.75;;;;;-143.00;100.00;60422.56;5092230;27;45641;-67
2023/09/29 03:26:01;;;;;;;;;18.75;18.75;;;;;-143.00;100.00;60422.56;5093835;27;45426;-66
2023/09/29 03:28:27;;;;;;;;;15.00;15.00;;;;;-143.00;100.00;60422.56;5088498;27;45443;-66
2023/09/29 03:30:53;;;;;;;;;10.00;9.75;;;;;-143.00;100.00;60422.56;5077267;27;47997;-67
2023/09/29 03:33:18;;;;;;;;;17.00;15.50;;;;;-143.00;100.00;60422.56;5099696;27;45429;-67
2023/09/29 03:35:45;;;;;;;;;16.75;15.50;;;;;-143.00;100.00;60422.56;5096753;27;45372;-67
2023/09/29 03:38:11;;;;;;;;;17.00;14.00;;;;;-143.00;100.00;60422.56;5094661;27;45373;-67
2023/09/29 03:40:36;;;;;;;;;16.25;15.00;;;;;-143.00;100.00;60422.56;5095806;27;45438;-66
2023/09/29 03:43:03;;;;;;;;;18.75;18.75;;;;;-143.00;100.00;60422.56;5095487;27;45294;-67
2023/09/29 03:45:28;;;;;;;;;16.75;15.25;;;;;-143.00;100.00;60422.56;5096380;27;45531;-66
2023/09/29 03:47:54;;;;;;;;;14.00;14.00;;;;;-143.00;100.00;60422.56;5092883;27;45559;-67
2023/09/29 03:50:19;;;;;;;;;16.75;15.00;;;;;-143.00;100.00;60422.56;5094838;27;46384;-67
2023/09/29 03:52:48;;;;;;;;;18.25;18.00;;;;;-143.00;100.00;60422.56;5094297;27;45457;-67
2023/09/29 03:55:14;;;;;;;;;18.00;16.00;;;;;-143.00;100.00;60422.56;5094095;27;45318;-66
2023/09/29 03:57:44;;;;;;;;;16.75;15.00;;;;;-143.00;100.00;60422.56;5094631;27;45355;-67
2023/09/29 04:00:12;;;;;;;;;15.50;15.50;;;;;-143.00;100.00;60422.56;5089091;27;45423;-67
2023/09/29 04:02:40;;;;;;;;;17.00;16.25;;;;;-143.00;100.00;60422.56;5095690;27;45471;-67
2023/09/29 04:05:06;;;;;;;;;14.00;14.00;;;;;-143.00;100.00;60422.56;5090898;27;45384;-67
2023/09/29 04:07:31;;;;;;;;;18.25;15.75;;;;;-143.00;100.00;60422.56;5094999;27;45498;-67
2023/09/29 04:09:57;;;;;;;;;15.50;15.50;;;;;-143.00;100.00;60422.56;5082937;27;45465;-67
2023/09/29 04:12:22;;;;;;;;;15.50;15.50;;;;;-143.00;100.00;60422.56;5077485;27;45310;-67
2023/09/29 04:14:48;;;;;;;;;15.25;14.50;;;;;-143.00;100.00;60422.56;5085742;27;45348;-67
2023/09/29 04:17:13;;;;;;;;;18.25;18.25;;;;;-143.00;100.00;60422.56;5095241;27;45403;-67
2023/09/29 04:19:39;;;;;;;;;17.25;15.00;;;;;-143.00;100.00;60422.56;5075218;27;47637;-67
2023/09/29 04:22:04;;;;;;;;;18.00;15.50;;;;;-143.00;100.00;60422.56;5095356;27;45440;-66
2023/09/29 04:24:30;;;;;;;;;14.25;14.25;;;;;-143.00;100.00;60422.56;5086191;27;45489;-67
2023/09/29 04:26:55;;;;;;;;;13.25;13.25;;;;;-143.00;100.00;60422.56;5095138;27;45563;-67
2023/09/29 04:29:21;;;;;;;;;15.00;15.00;;;;;-143.00;100.00;60422.56;5088644;27;46347;-66
2023/09/29 04:31:46;;;;;;;;;16.75;15.50;;;;;-143.00;100.00;60422.56;5095079;27;45420;-67
2023/09/29 04:34:11;;;;;;;;;18.25;17.50;;;;;-143.00;100.00;60422.56;5098531;27;45454;-67
2023/09/29 04:36:37;;;;;;;;;17.25;17.25;;;;;-143.00;100.00;60422.56;5094378;27;45405;-67
2023/09/29 04:39:02;;;;;;;;;16.25;14.50;;;;;-143.00;100.00;60422.56;5094037;27;45598;-66
2023/09/29 04:41:29;;;;;;;;;17.00;16.00;;;;;-143.00;100.00;60422.56;5094086;27;45445;-66
2023/09/29 04:43:55;;;;;;;;;20.25;17.75;;;;;-143.00;100.00;60422.56;5089586;27;45436;-67
2023/09/29 04:46:20;;;;;;;;;17.25;15.00;;;;;-143.00;100.00;60422.56;5095059;27;45313;-67
2023/09/29 04:48:46;;;;;;;;;15.00;15.00;;;;;-143.00;100.00;60422.56;5092057;27;45871;-67
2023/09/29 04:51:11;;;;;;;;;15.75;15.00;;;;;-143.00;100.00;60422.56;5094342;27;45480;-67
2023/09/29 04:53:37;;;;;;;;;17.50;16.50;;;;;-143.00;100.00;60422.56;5092227;27;45639;-66
2023/09/29 04:56:02;;;;;;;;;18.00;15.00;;;;;-143.00;100.00;60422.56;5094653;27;45372;-66
2023/09/29 04:58:28;;;;;;;;;18.75;17.75;;;;;-143.00;100.00;60422.56;5093116;27;47278;-67
2023/09/29 05:00:53;;;;;;;;;22.25;17.00;;;;;-143.00;100.00;60422.56;5090136;27;45487;-67
2023/09/29 05:03:18;;;;;;;;;18.00;17.50;;;;;-143.00;100.00;60422.56;5092290;27;45685;-67
2023/09/29 05:05:46;;;;;;;;;18.50;18.00;;;;;-143.00;100.00;60422.56;5094489;27;45533;-66
2023/09/29 05:08:11;;;;;;;;;16.00;16.00;;;;;-143.00;100.00;60422.56;5091491;27;45430;-67
2023/09/29 05:10:37;;;;;;;;;18.75;18.00;;;;;-143.00;100.00;60422.56;5075291;27;45515;-67
2023/09/29 05:13:02;;;;;;;;;15.75;15.75;;;;;-143.00;100.00;60422.56;5087069;27;45917;-67
2023/09/29 05:15:28;;;;;;;;;19.00;18.25;;;;;-143.00;100.00;60422.56;5091930;27;45421;-67
2023/09/29 05:17:53;;;;;;;;;13.75;13.50;;;;;-143.00;100.00;60422.56;5096646;27;45420;-66
2023/09/29 05:20:19;;;;;;;;;16.00;14.50;;;;;-143.00;100.00;60422.56;5094230;27;45331;-66
2023/09/29 05:22:45;;;;;;;;;18.25;17.00;;;;;-143.00;100.00;60422.56;5092538;27;45381;-66
2023/09/29 05:25:10;;;;;;;;;15.25;14.25;;;;;-143.00;100.00;60422.56;5084236;27;45429;-66
2023/09/29 05:27:35;;;;;;;;;13.25;13.25;;;;;-143.00;100.00;60422.56;5071333;27;48043;-67
2023/09/29 05:30:02;;;;;;;;;16.25;16.00;;;;;-143.00;100.00;60422.56;5088583;27;45317;-67
2023/09/29 05:32:28;;;;;;;;;18.75;15.25;;;;;-143.00;100.00;60422.56;5088349;27;45407;-67
2023/09/29 05:34:53;;;;;;;;;15.00;15.00;;;;;-143.00;100.00;60422.56;5084707;27;45976;-66
2023/09/29 05:37:19;;;;;;;;;18.00;16.25;;;;;-143.00;100.00;60422.56;5092034;27;46489;-68
2023/09/29 05:39:44;;;;;;;;;20.00;16.75;;;;;-143.00;100.00;60422.56;5089965;27;45455;-67
2023/09/29 05:42:11;;;;;;;;;23.00;18.75;;;;;-143.00;100.00;60422.56;5093868;27;45562;-67
2023/09/29 05:44:36;;;;;;;;;18.25;17.50;;;;;-143.00;100.00;60422.56;5089724;27;45434;-67
2023/09/29 05:47:02;;;;;;;;;12.25;12.25;;;;;-143.00;100.00;60422.56;5093277;27;45441;-67
2023/09/29 05:49:28;;;;;;;;;18.50;17.00;;;;;-143.00;100.00;60422.56;5095654;27;45448;-67
2023/09/29 05:51:54;;;;;;;;;17.75;16.00;;;;;-143.00;100.00;60422.56;5083995;27;45495;-67
2023/09/29 05:54:19;;;;;;;;;21.75;19.75;;;;;-143.00;100.00;60422.56;5089440;27;45416;-67
2023/09/29 05:56:45;;;;;;;;;25.75;21.75;;;;;-143.00;100.00;60422.56;5096142;27;45385;-67
2023/09/29 05:59:10;;;;;;;;;24.00;22.00;;;;;-143.00;100.00;60422.56;5095660;27;45386;-67
2023/09/29 06:01:36;;;;;;;;;27.25;17.00;;;;;-143.00;100.00;60422.56;5093789;27;45570;-67
2023/09/29 06:04:01;;;;;;;;;17.25;15.50;;;;;-143.00;100.00;60422.56;5089606;27;45363;-67
2023/09/29 06:06:27;;;;;;;;;23.50;18.00;;;;;-143.00;100.00;60422.56;5096465;27;45597;-67
2023/09/29 06:08:52;;;;;;;;;14.75;14.00;;;;;-143.00;100.00;60422.56;5094098;27;45359;-67
2023/09/29 06:11:17;;;;;;;;;14.00;13.00;;;;;-143.00;100.00;60422.56;5089421;27;45371;-67
2023/09/29 06:13:43;;;;;;;;;16.75;14.75;;;;;-143.00;100.00;60422.56;5081539;27;45525;-67
2023/09/29 06:16:08;;;;;;;;;13.50;13.50;;;;;-143.00;100.00;60422.56;5109727;27;45961;-67
2023/09/29 06:18:34;;;;;;;;;15.25;14.25;;;;;-143.00;100.00;60422.56;5089833;27;45406;-67
2023/09/29 06:21:00;;;;;;;;;16.00;13.75;;;;;-143.00;100.00;60422.56;5096616;27;46257;-67
2023/09/29 06:23:26;;;;;;;;;17.00;14.00;;;;;-143.00;100.00;60422.56;5092791;27;45420;-67
2023/09/29 06:26:01;;;;;;;;;17.00;15.00;;;;;-143.00;100.00;60422.56;5095907;27;45472;-66
2023/09/29 06:28:27;;;;;;;;;14.40;13.60;;;;;-143.00;100.00;60422.56;5096553;27;45523;-66
2023/09/29 06:30:57;;;;;;;;;15.50;15.00;;;;;-143.00;100.00;60422.56;5096312;27;45511;-66
2023/09/29 06:33:25;;;;;;;;;14.75;13.75;;;;;-143.00;100.00;60422.56;5099030;27;45394;-66
2023/09/29 06:35:52;;;;;;;;;17.50;15.50;;;;;-143.00;100.00;60422.56;5096285;27;45521;-66
2023/09/29 06:38:17;;;;;;;;;19.25;16.50;;;;;-143.00;100.00;60422.56;5100624;27;45431;-66
2023/09/29 06:40:45;;;;;;;;;26.25;17.75;;;;;-143.00;100.00;60422.56;5094622;27;45562;-68
2023/09/29 06:43:11;;;;;;;;;15.25;13.25;;;;;-143.00;100.00;60422.56;5092978;27;45418;-67
2023/09/29 06:45:37;;;;;;;;;19.25;19.25;;;;;-143.00;100.00;60422.56;5095109;27;46173;-65
2023/09/29 06:48:06;;;;;;;;;18.25;15.50;;;;;-143.00;100.00;60422.56;5092509;27;45294;-66
2023/09/29 06:50:31;;;;;;;;;20.25;17.50;;;;;-143.00;100.00;60422.56;5095162;27;45494;-68
2023/09/29 06:52:57;;;;;;;;;21.50;19.25;;;;;-143.00;100.00;60422.56;5093723;27;45478;-67
2023/09/29 06:55:22;;;;;;;;;22.50;16.25;;;;;-143.00;100.00;60422.56;5094947;27;46090;-66
2023/09/29 06:57:48;;;;;;;;;18.00;17.50;;;;;-143.00;100.00;60422.56;5075245;27;45382;-65
2023/09/29 07:00:14;;;;;;;;;20.50;17.00;;;;;-143.00;100.00;60422.56;5089735;27;45451;-66
2023/09/29 07:02:39;;;;;;;;;21.00;19.00;;;;;-143.00;100.00;60422.56;5094667;27;45365;-66
2023/09/29 07:05:05;;;;;;;;;18.00;17.00;;;;;-143.00;100.00;60422.56;5094394;27;45986;-66
2023/09/29 07:07:31;;;;;;;;;17.75;14.50;;;;;-143.00;100.00;60422.56;5076239;27;45446;-67
2023/09/29 07:09:57;;;;;;;;;19.75;17.50;;;;;-143.00;100.00;60422.56;5083554;27;45414;-67
2023/09/29 07:12:22;;;;;;;;;21.50;17.75;;;;;-143.00;100.00;60422.56;5073353;27;45477;-67
2023/09/29 07:14:48;;;;;;;;;19.25;18.50;;;;;-143.00;100.00;60422.56;5091175;27;46355;-67
2023/09/29 07:17:13;;;;;;;;;22.50;18.25;;;;;-143.00;100.00;60422.56;5094938;27;45718;-67
2023/09/29 07:19:39;;;;;;;;;16.75;16.75;;;;;-143.00;100.00;60422.56;5094002;27;45501;-67
2023/09/29 07:22:04;;;;;;;;;22.00;21.00;;;;;-143.00;100.00;60422.56;5094886;27;45390;-67
2023/09/29 07:24:30;;;;;;;;;18.50;17.00;;;;;-143.00;100.00;60422.56;5086125;27;45484;-67
2023/09/29 07:26:55;;;;;;;;;16.25;14.50;;;;;-143.00;100.00;60422.56;5075747;27;45370;-67
2023/09/29 07:29:21;;;;;;;;;20.25;19.00;;;;;-143.00;100.00;60422.56;5089824;27;45486;-67
2023/09/29 07:31:48;;;;;;;;;19.75;16.00;;;;;-143.00;100.00;60422.56;5075412;27;45551;-67
2023/09/29 07:34:15;;;;;;;;;21.75;17.50;;;;;-143.00;100.00;60422.56;5094292;27;46303;-67
2023/09/29 07:36:48;;;;;;;;;16.00;15.75;;;;;-143.00;100.00;60422.56;5093609;27;45394;-67
2023/09/29 07:39:14;;;;;;;;;18.00;16.00;;;;;-143.00;100.00;60422.56;5070176;28;45527;-67
2023/09/29 07:41:40;;;;;;;;;15.25;14.25;;;;;-143.00;100.00;60422.56;5091303;27;45423;-67
2023/09/29 07:44:09;;;;;;;;;14.00;13.50;;;;;-143.00;100.00;60422.56;5093550;27;46213;-67
2023/09/29 07:46:35;;;;;;;;;14.00;14.00;;;;;-143.00;100.00;60422.56;5094195;27;45374;-66
2023/09/29 07:49:02;;;;;;;;;14.75;14.75;;;;;-143.00;100.00;60422.56;5094633;27;45414;-65
2023/09/29 07:51:28;;;;;;;;;14.75;13.75;;;;;-143.00;100.00;60422.56;5091804;27;45463;-67
2023/09/29 07:53:54;;;;;;;;;15.00;14.50;;;;;-143.00;100.00;60422.56;5093521;27;45453;-68
2023/09/29 07:56:19;;;;;;;;;12.75;12.75;;;;;-143.00;100.00;60422.56;5093090;27;45451;-68
2023/09/29 07:58:44;;;;;;;;;13.50;13.50;;;;;-143.00;100.00;60422.56;5103424;27;45317;-68
2023/09/29 08:01:10;;;;;;;;;14.25;14.00;;;;;-143.00;100.00;60422.56;5074015;27;45397;-67
2023/09/29 08:03:36;;;;;;;;;13.50;13.50;;;;;-143.00;100.00;60422.56;5087348;27;47187;-68
2023/09/29 08:06:01;;;;;;;;;16.25;16.00;;;;;-143.00;100.00;60422.56;5093359;27;45424;-66
2023/09/29 08:08:28;;;;;;;;;15.00;14.25;;;;;-143.00;100.00;60422.56;5090860;27;45300;-67
2023/09/29 08:10:53;;;;;;;;;11.75;11.75;;;;;-143.00;100.00;60422.56;5090931;27;45495;-68
2023/09/29 08:13:19;;;;;;;;;13.50;11.75;;;;;-143.00;100.00;60422.56;5087376;27;46304;-68
2023/09/29 08:15:45;;;;;;;;;13.00;12.75;;;;;-143.00;100.00;60422.56;5088618;27;45404;-67
2023/09/29 08:18:10;;;;;;;;;17.25;16.75;;;;;-143.00;100.00;60422.56;5093824;27;45486;-68
2023/09/29 08:20:37;;;;;;;;;13.75;10.75;;;;;-143.00;100.00;60422.56;5075005;27;45523;-65
2023/09/29 08:23:02;;;;;;;;;13.50;13.25;;;;;-143.00;100.00;60422.56;5090172;27;45491;-68
2023/09/29 08:25:29;;;;;;;;;15.25;14.75;;;;;-143.00;100.00;60422.56;5091883;27;45513;-68
2023/09/29 08:27:56;;;;;;;;;13.25;12.00;;;;;-143.00;100.00;60422.56;5092183;27;45321;-68
2023/09/29 08:30:22;;;;;;;;;18.00;15.00;;;;;-143.00;100.00;60422.56;5090352;27;45412;-67
2023/09/29 08:32:47;;;;;;;;;13.50;13.50;;;;;-143.00;100.00;60422.56;5086931;27;45505;-67
2023/09/29 08:35:13;;;;;;;;;17.50;14.50;;;;;-143.00;100.00;60422.56;5104251;27;45320;-66
2023/09/29 08:37:45;;;;;;;;;19.25;16.75;;;;;-143.00;100.00;60422.56;5093209;27;45472;-66
2023/09/29 08:40:14;;;;;;;;;11.00;10.00;;;;;-143.00;100.00;60422.56;5094162;27;45372;-66
2023/09/29 08:42:45;;;;;;;;;21.50;19.50;;;;;-143.00;100.00;60422.56;5094003;27;45482;-70
2023/09/29 08:45:16;;;;;;;;;20.00;19.50;;;;;-143.00;100.00;60422.56;5093713;27;45412;-67
2023/09/29 08:47:41;;;;;;;;;13.40;11.60;;;;;-143.00;100.00;60422.56;5094089;27;45436;-67
2023/09/29 08:50:09;;;;;;;;;14.50;13.50;;;;;-143.00;100.00;60422.56;5093474;27;45436;-67
2023/09/29 08:52:35;;;;;;;;;14.25;13.50;;;;;-143.00;100.00;60422.56;5093615;27;46201;-67
2023/09/29 08:55:04;;;;;;;;;16.40;14.60;;;;;-143.00;100.00;60422.56;5074916;27;46167;-67
2023/09/29 08:57:30;;;;;;;;;14.25;11.75;;;;;-143.00;100.00;60422.56;5093752;27;45354;-68
2023/09/29 08:59:58;;;;;;;;;13.00;12.50;;;;;-143.00;100.00;60422.56;5075022;27;45512;-67
2023/09/29 09:02:24;;;;;;;;;14.00;13.40;;;;;-143.00;100.00;60422.56;5093066;27;45513;-64
2023/09/29 09:04:50;;;;;;;;;13.60;12.80;;;;;-143.00;100.00;60422.56;5074993;27;46018;-64
2023/09/29 09:07:16;;;;;;;;;12.60;9.80;;;;;-143.00;100.00;60422.56;5093879;27;45301;-64
2023/09/29 09:09:49;;;;;;;;;15.25;11.75;;;;;-143.00;100.00;60422.56;5093660;27;45319;-64
2023/09/29 09:12:15;;;;;;;;;14.25;12.50;;;;;-143.00;100.00;60422.56;5093599;27;46543;-64
2023/09/29 09:14:43;;;;;;;;;13.20;11.80;;;;;-143.00;100.00;60422.56;5093620;27;45333;-64
2023/09/29 09:17:10;;;;;;;;;9.20;9.20;;;;;-143.00;100.00;60422.56;5093462;27;45314;-64
2023/09/29 09:19:50;;;;;;;;;11.50;10.25;;;;;-143.00;100.00;60422.56;5093643;27;45449;-64
2023/09/29 09:22:17;;;;;;;;;13.40;11.40;;;;;-143.00;100.00;60422.56;5092633;27;45433;-64
2023/09/29 09:24:43;;;;;;;;;12.00;11.40;;;;;-143.00;100.00;60422.56;5092585;27;45359;-63
2023/09/29 09:27:08;;;;;;;;;12.75;12.25;;;;;-143.00;100.00;60422.56;5093657;27;45518;-64
2023/09/29 09:29:46;;;;;;;;;12.00;11.50;;;;;-143.00;100.00;60422.56;5093708;27;45549;-63
2023/09/29 09:32:11;;;;;;;;;13.60;12.40;;;;;-143.00;100.00;60422.56;5093390;27;45449;-64
2023/09/29 09:34:37;;;;;;;;;11.00;11.00;;;;;-143.00;100.00;60422.56;5092789;27;45384;-63
2023/09/29 09:37:06;;;;;;;;;9.80;9.60;;;;;-143.00;100.00;60422.56;5092984;27;45349;-64
2023/09/29 09:39:33;;;;;;;;;11.60;11.00;;;;;-143.00;100.00;60422.56;5092626;27;45251;-64
2023/09/29 09:41:59;;;;;;;;;13.60;11.80;;;;;-143.00;100.00;60422.56;5092765;27;45509;-64
2023/09/29 09:44:25;;;;;;;;;11.25;10.25;;;;;-143.00;100.00;60422.56;5093134;27;45508;-64
2023/09/29 09:46:53;;;;;;;;;11.00;11.00;;;;;-143.00;100.00;60422.56;5073842;27;45446;-64
2023/09/29 09:49:24;;;;;;;;;11.25;11.25;;;;;-143.00;100.00;60422.56;5093211;27;45375;-64
2023/09/29 09:51:52;;;;;;;;;11.40;11.40;;;;;-143.00;100.00;60422.56;5093345;27;45457;-64
2023/09/29 09:54:26;;;;;;;;;10.20;9.80;;;;;-143.00;100.00;60422.56;5093249;27;45426;-64
2023/09/29 09:57:00;;;;;;;;;12.20;10.20;;;;;-143.00;100.00;60422.56;5093506;27;45431;-64
2023/09/29 09:59:27;;;;;;;;;12.00;10.25;;;;;-143.00;100.00;60422.56;5093479;27;45576;-64
2023/09/29 10:01:55;;;;;;;;;12.20;10.40;;;;;-143.00;100.00;60422.56;5092470;27;45434;-64
2023/09/29 10:04:26;;;;;;;;;11.00;10.00;;;;;-143.00;100.00;60422.56;5092702;27;45568;-64
2023/09/29 10:06:55;;;;;;;;;13.20;12.80;;;;;-143.00;100.00;60422.56;5093142;27;45584;-64
2023/09/29 10:09:21;;;;;;;;;9.50;9.25;;;;;-143.00;100.00;60422.56;5092975;27;45502;-64
2023/09/29 10:12:00;;;;;;;;;12.75;11.00;;;;;-143.00;100.00;60422.56;5092322;27;45516;-64
2023/09/29 10:14:25;;;;;;;;;10.20;8.60;;;;;-143.00;100.00;60422.56;5091972;27;45394;-64
2023/09/29 10:17:03;;;;;;;;;11.50;10.00;;;;;-143.00;100.00;60422.56;5093513;27;45422;-64
2023/09/29 10:19:37;;;;;;;;;12.25;10.75;;;;;-143.00;100.00;60422.56;5092964;27;45485;-64
2023/09/29 10:22:04;;;;;;;;;11.00;10.80;;;;;-143.00;100.00;60422.56;5092946;27;45475;-64
2023/09/29 10:24:30;;;;;;;;;12.00;9.80;;;;;-143.00;100.00;60422.56;5092488;27;45304;-64
2023/09/29 10:27:03;;;;;;;;;8.20;8.20;;;;;-143.00;100.00;60422.56;5093071;27;45525;-64
2023/09/29 10:29:30;;;;;;;;;10.60;9.00;;;;;-143.00;100.00;60422.56;5092720;27;45489;-64
2023/09/29 10:32:10;;;;;;;;;11.80;10.40;;;;;-143.00;100.00;60422.56;5092702;27;45455;-64
2023/09/29 10:34:37;;;;;;;;;9.60;9.60;;;;;-143.00;100.00;60422.56;5094054;27;45448;-64
2023/09/29 10:37:03;;;;;;;;;8.00;8.00;;;;;-143.00;100.00;60422.56;5096734;27;45389;-64
2023/09/29 10:39:29;;;;;;;;;9.50;9.00;;;;;-143.00;100.00;60422.56;5095877;27;45455;-64
2023/09/29 10:41:59;;;;;;;;;8.20;8.20;;;;;-143.00;100.00;60422.56;5096211;27;47020;-64
2023/09/29 10:44:28;;;;;;;;;10.20;9.40;;;;;-143.00;100.00;60422.56;5095996;27;45469;-64
2023/09/29 10:46:54;;;;;;;;;10.00;8.20;;;;;-143.00;100.00;60422.56;5077770;27;45358;-64
2023/09/29 10:49:20;;;;;;;;;10.50;9.50;;;;;-143.00;100.00;60422.56;5077500;27;45473;-64
2023/09/29 10:51:46;;;;;;;;;7.00;6.75;;;;;-143.00;100.00;60422.56;5077479;27;46023;-63
2023/09/29 10:54:12;;;;;;;;;7.60;6.60;;;;;-143.00;100.00;60422.56;5095916;27;45363;-64